Gladstone, NJ

9:03 AM EDT on April 28, 2017 (GMT -0400)
KNJGLADS3 | | Change Station

Elev 312 ft 40.73 °N, 74.67 °W | Updated 11 minutes ago

Overcast
Overcast
--
Feels Like --
N
-
Wind Variable Wind from North

Today
High -- | Low -- °F
--% Chance of Precip.
Yesterday
High -- | Low -- °F
Precip. -- in
Pressure 29.96 in
Visibility 3.0 miles
Clouds Overcast 500 ft
Dew Point Not available.
Humidity Not available.
Rainfall in
Snow Depth Not available.
6:00 AM 7:52 PM
Waxing Crescent, 6% visible
METAR KSMQ 281253Z AUTO VRB03KT 3SM BR OVC005 16/16 A2996 RMK AO2 SLP144 T01610156 $
Pressure 29.96 in
Visibility 3.0 miles
Clouds Overcast 500 ft
Dew Point Not available.
Humidity Not available.
Rainfall in
Snow Depth Not available.
6:00 AM 7:52 PM
Waxing Crescent, 6% visible
METAR KSMQ 281253Z AUTO VRB03KT 3SM BR OVC005 16/16 A2996 RMK AO2 SLP144 T01610156 $

Get Severe Weather Alerts

Thanks for signing up!

Be on the lookout for a verification email in your inbox.

You'll start receiving the daily forecast at 8 AM.

×

10-Day Weather Forecast

Almanac

Astronomy

Apr. 28, 2017 Rise Set
Actual Time
Civil Twilight
Nautical Twilight
Astronomical Twilight
Moon
Length of Visible Light
Length of Day
Tomorrow will be .
, % of the Moon is Illuminated

Today's Extremes

State Highs State Lows

Community

WunderPhotos

WunderBlog® & News

Nearby

Air Quality

  Air Quality AQ Index Pollutant
Not available.

Snow Depth

Station Depth Elevation

Earthquake Activity

City Distance Mag. Time & Date
Minimum magnitude displayed is 2.5.

Coastal Water Temperatures

Place Temperature

Stations

Nearby Weather Stations

Station Location Temp. Windchill Dew Point Humidity Wind Precip. Elev Updated Type
                   

Watches & Warnings

There are currently no watches in effect.